Airville, Pennsylvania
Current Conditions -  °F | °C
As of 7:53 PM on Friday 28 Nov 2014 (Local Time) from KLNS Reporting Station
Clear Clear  
Wind Chill: 22°   Ceiling: Unl
Heat Index: 27°   Visibility: 10mi
Dew Point: 15°   Wind: 5mph
Humidity: 61%   Direction: 290°WNW
Pressure: 30.26"   Gusts: NA
Location:  39.83°N, 76.41°W
Report Text: KLNS 290053Z 29004KT 10SM CLR M03/M09 A3026 RMK AO2 SLP252 T10281094
Loading
Personal Weather Stations






























Interactive Weather Map New forecast layout! Learn more

10-Day Weather Forecast

Advertisements
Track Severe Weather on mobile